Current Weather

Lesquin

Lesquin, France (LFQQ)

Report from: Monday, June 27, 2022 1:30 PM CEST
Current time: Monday, June 27, 2022 2:02 PM CEST

Nearby weather
Weather history
Weather forecast

Present weatherRain showers
Temperature16.0°C (60.8°F)
Dew point11.0°C (51.8°F)
Winds 4 kts (2.1 m/s, 4.6 mph) Vrb
Winds variableWinds variable from North-Northeast (20°) to West (280°)
Visibility6.2 mi. (10 km)
Clouds Scattered clouds with cumulonimbus 4,000 ft. (1,219 m)
Altimeter30.03 in.Hg (1017 mB)
Relative humidity72 %
Density altitude176 ft. (54 m)
Remarks Fully automated report
Flight conditions Visual Meteorological Conditions
Raw dataLFQQ 271130Z AUTO 32004KT 280V020 9999 ///TCU 16/11 Q1017 TEMPO 3000 SHRA SCT040CB
An error has occurred. This application may no longer respond until reloaded. Reload 🗙